sensor_id;sensor_type;location;lat;lon;timestamp;P1;durP1;ratioP1;P2;durP2;ratioP2
26135;SDS011;13889;50.806;4.608;2022-09-13T00:00:41;7.43;;;2.85;;
26135;SDS011;13889;50.806;4.608;2022-09-13T00:03:08;5.15;;;2.35;;
26135;SDS011;13889;50.806;4.608;2022-09-13T00:05:36;6.97;;;2.40;;
26135;SDS011;13889;50.806;4.608;2022-09-13T00:08:02;6.93;;;2.60;;
26135;SDS011;13889;50.806;4.608;2022-09-13T00:10:29;5.35;;;2.60;;
26135;SDS011;13889;50.806;4.608;2022-09-13T00:12:58;3.95;;;2.60;;
26135;SDS011;13889;50.806;4.608;2022-09-13T00:15:24;6.35;;;3.00;;
26135;SDS011;13889;50.806;4.608;2022-09-13T00:17:50;3.42;;;2.70;;
26135;SDS011;13889;50.806;4.608;2022-09-13T00:20:16;2.85;;;2.55;;
26135;SDS011;13889;50.806;4.608;2022-09-13T00:22:42;4.95;;;2.80;;
26135;SDS011;13889;50.806;4.608;2022-09-13T00:25:08;3.80;;;2.65;;
26135;SDS011;13889;50.806;4.608;2022-09-13T00:27:34;2.92;;;2.65;;
26135;SDS011;13889;50.806;4.608;2022-09-13T00:30:02;4.40;;;2.63;;
26135;SDS011;13889;50.806;4.608;2022-09-13T00:32:30;4.85;;;2.90;;
26135;SDS011;13889;50.806;4.608;2022-09-13T00:34:55;5.97;;;2.58;;
26135;SDS011;13889;50.806;4.608;2022-09-13T00:37:22;6.07;;;2.85;;
26135;SDS011;13889;50.806;4.608;2022-09-13T00:39:47;4.63;;;3.00;;
26135;SDS011;13889;50.806;4.608;2022-09-13T00:42:13;3.92;;;3.10;;
26135;SDS011;13889;50.806;4.608;2022-09-13T00:47:47;3.58;;;3.00;;
26135;SDS011;13889;50.806;4.608;2022-09-13T00:50:21;7.28;;;3.22;;
26135;SDS011;13889;50.806;4.608;2022-09-13T00:52:57;4.90;;;3.00;;
26135;SDS011;13889;50.806;4.608;2022-09-13T00:56:01;3.08;;;2.78;;
26135;SDS011;13889;50.806;4.608;2022-09-13T01:00:51;3.17;;;2.80;;
26135;SDS011;13889;50.806;4.608;2022-09-13T01:03:20;5.47;;;3.47;;
26135;SDS011;13889;50.806;4.608;2022-09-13T01:05:53;8.07;;;3.35;;
26135;SDS011;13889;50.806;4.608;2022-09-13T01:08:22;4.97;;;3.20;;
26135;SDS011;13889;50.806;4.608;2022-09-13T01:10:49;4.38;;;3.05;;
26135;SDS011;13889;50.806;4.608;2022-09-13T01:15:45;6.30;;;3.38;;
26135;SDS011;13889;50.806;4.608;2022-09-13T01:18:11;3.83;;;3.47;;
26135;SDS011;13889;50.806;4.608;2022-09-13T01:20:41;6.28;;;3.28;;
26135;SDS011;13889;50.806;4.608;2022-09-13T01:31:45;3.45;;;2.60;;
26135;SDS011;13889;50.806;4.608;2022-09-13T01:34:52;4.00;;;3.20;;
26135;SDS011;13889;50.806;4.608;2022-09-13T01:37:32;9.43;;;3.83;;
26135;SDS011;13889;50.806;4.608;2022-09-13T01:45:38;6.53;;;3.60;;
26135;SDS011;13889;50.806;4.608;2022-09-13T01:51:08;9.02;;;3.53;;
26135;SDS011;13889;50.806;4.608;2022-09-13T01:56:26;5.13;;;3.40;;
26135;SDS011;13889;50.806;4.608;2022-09-13T01:58:58;4.15;;;3.13;;
26135;SDS011;13889;50.806;4.608;2022-09-13T02:03:59;5.63;;;3.50;;
26135;SDS011;13889;50.806;4.608;2022-09-13T02:06:35;7.70;;;3.55;;
26135;SDS011;13889;50.806;4.608;2022-09-13T02:09:27;5.85;;;3.75;;
26135;SDS011;13889;50.806;4.608;2022-09-13T02:12:09;5.90;;;3.83;;
26135;SDS011;13889;50.806;4.608;2022-09-13T02:14:40;4.57;;;3.20;;
26135;SDS011;13889;50.806;4.608;2022-09-13T02:17:20;6.05;;;3.30;;
26135;SDS011;13889;50.806;4.608;2022-09-13T02:20:06;6.18;;;3.20;;
26135;SDS011;13889;50.806;4.608;2022-09-13T02:22:38;6.45;;;3.60;;
26135;SDS011;13889;50.806;4.608;2022-09-13T02:25:12;3.50;;;3.05;;
26135;SDS011;13889;50.806;4.608;2022-09-13T02:27:42;8.10;;;3.50;;
26135;SDS011;13889;50.806;4.608;2022-09-13T02:30:12;4.22;;;3.42;;
26135;SDS011;13889;50.806;4.608;2022-09-13T02:32:40;4.90;;;4.03;;
26135;SDS011;13889;50.806;4.608;2022-09-13T02:38:26;9.00;;;3.28;;
26135;SDS011;13889;50.806;4.608;2022-09-13T02:41:12;3.97;;;3.33;;
26135;SDS011;13889;50.806;4.608;2022-09-13T02:43:47;6.93;;;3.15;;
26135;SDS011;13889;50.806;4.608;2022-09-13T02:46:39;4.22;;;3.00;;
26135;SDS011;13889;50.806;4.608;2022-09-13T02:49:29;5.07;;;3.25;;
26135;SDS011;13889;50.806;4.608;2022-09-13T02:59:45;5.53;;;3.58;;
26135;SDS011;13889;50.806;4.608;2022-09-13T03:02:13;10.63;;;3.83;;
26135;SDS011;13889;50.806;4.608;2022-09-13T03:04:43;6.65;;;3.35;;
26135;SDS011;13889;50.806;4.608;2022-09-13T03:07:09;5.90;;;3.33;;
26135;SDS011;13889;50.806;4.608;2022-09-13T03:09:46;6.60;;;3.20;;
26135;SDS011;13889;50.806;4.608;2022-09-13T03:23:21;5.38;;;3.50;;
26135;SDS011;13889;50.806;4.608;2022-09-13T03:26:07;6.07;;;3.67;;
26135;SDS011;13889;50.806;4.608;2022-09-13T03:31:52;6.07;;;3.20;;
26135;SDS011;13889;50.806;4.608;2022-09-13T03:34:30;4.97;;;3.17;;
26135;SDS011;13889;50.806;4.608;2022-09-13T03:39:59;4.35;;;2.95;;
26135;SDS011;13889;50.806;4.608;2022-09-13T03:42:41;4.65;;;3.25;;
26135;SDS011;13889;50.806;4.608;2022-09-13T03:45:30;5.68;;;3.50;;
26135;SDS011;13889;50.806;4.608;2022-09-13T03:48:01;5.55;;;3.30;;
26135;SDS011;13889;50.806;4.608;2022-09-13T03:50:29;5.05;;;2.97;;
26135;SDS011;13889;50.806;4.608;2022-09-13T03:52:59;7.60;;;3.15;;
26135;SDS011;13889;50.806;4.608;2022-09-13T03:55:30;5.35;;;3.22;;
26135;SDS011;13889;50.806;4.608;2022-09-13T03:57:58;5.47;;;3.72;;
26135;SDS011;13889;50.806;4.608;2022-09-13T04:00:23;7.05;;;3.63;;
26135;SDS011;13889;50.806;4.608;2022-09-13T04:02:49;5.05;;;3.15;;
26135;SDS011;13889;50.806;4.608;2022-09-13T04:05:15;6.65;;;3.30;;
26135;SDS011;13889;50.806;4.608;2022-09-13T04:07:40;4.75;;;3.42;;
26135;SDS011;13889;50.806;4.608;2022-09-13T04:10:06;4.93;;;2.92;;
26135;SDS011;13889;50.806;4.608;2022-09-13T04:12:32;4.45;;;3.30;;
26135;SDS011;13889;50.806;4.608;2022-09-13T04:14:59;6.68;;;3.72;;
26135;SDS011;13889;50.806;4.608;2022-09-13T04:17:24;5.78;;;3.25;;
26135;SDS011;13889;50.806;4.608;2022-09-13T04:19:50;5.35;;;3.15;;
26135;SDS011;13889;50.806;4.608;2022-09-13T04:22:16;5.00;;;3.40;;
26135;SDS011;13889;50.806;4.608;2022-09-13T04:24:41;6.57;;;3.13;;
26135;SDS011;13889;50.806;4.608;2022-09-13T04:27:08;5.80;;;3.28;;
26135;SDS011;13889;50.806;4.608;2022-09-13T04:29:36;8.68;;;3.78;;
26135;SDS011;13889;50.806;4.608;2022-09-13T04:32:02;4.68;;;2.55;;
26135;SDS011;13889;50.806;4.608;2022-09-13T04:34:28;7.57;;;3.55;;
26135;SDS011;13889;50.806;4.608;2022-09-13T04:36:56;5.78;;;4.00;;
26135;SDS011;13889;50.806;4.608;2022-09-13T04:39:21;6.45;;;3.45;;
26135;SDS011;13889;50.806;4.608;2022-09-13T04:41:50;5.75;;;3.42;;
26135;SDS011;13889;50.806;4.608;2022-09-13T04:44:19;5.05;;;3.75;;
26135;SDS011;13889;50.806;4.608;2022-09-13T04:46:46;5.30;;;3.75;;
26135;SDS011;13889;50.806;4.608;2022-09-13T04:49:13;5.72;;;3.42;;
26135;SDS011;13889;50.806;4.608;2022-09-13T04:51:41;5.32;;;3.30;;
26135;SDS011;13889;50.806;4.608;2022-09-13T04:54:07;3.67;;;2.65;;
26135;SDS011;13889;50.806;4.608;2022-09-13T04:56:34;4.35;;;3.30;;
26135;SDS011;13889;50.806;4.608;2022-09-13T04:59:00;7.07;;;3.13;;
26135;SDS011;13889;50.806;4.608;2022-09-13T05:01:27;7.25;;;3.50;;
26135;SDS011;13889;50.806;4.608;2022-09-13T05:03:53;4.13;;;3.30;;
26135;SDS011;13889;50.806;4.608;2022-09-13T05:06:20;6.45;;;3.00;;
26135;SDS011;13889;50.806;4.608;2022-09-13T05:08:51;3.97;;;3.58;;
26135;SDS011;13889;50.806;4.608;2022-09-13T05:11:19;4.70;;;3.30;;
26135;SDS011;13889;50.806;4.608;2022-09-13T05:13:50;4.82;;;3.45;;
26135;SDS011;13889;50.806;4.608;2022-09-13T05:16:18;4.57;;;3.10;;
26135;SDS011;13889;50.806;4.608;2022-09-13T05:18:52;4.80;;;3.50;;
26135;SDS011;13889;50.806;4.608;2022-09-13T05:21:19;6.82;;;3.65;;
26135;SDS011;13889;50.806;4.608;2022-09-13T05:39:54;5.18;;;2.85;;
26135;SDS011;13889;50.806;4.608;2022-09-13T05:42:20;6.03;;;3.42;;
26135;SDS011;13889;50.806;4.608;2022-09-13T05:44:46;4.30;;;3.42;;
26135;SDS011;13889;50.806;4.608;2022-09-13T05:57:14;4.40;;;3.15;;
26135;SDS011;13889;50.806;4.608;2022-09-13T05:59:40;3.67;;;3.08;;
26135;SDS011;13889;50.806;4.608;2022-09-13T06:02:18;4.15;;;3.10;;
26135;SDS011;13889;50.806;4.608;2022-09-13T06:04:51;5.40;;;3.17;;
26135;SDS011;13889;50.806;4.608;2022-09-13T06:07:17;4.15;;;3.50;;
26135;SDS011;13889;50.806;4.608;2022-09-13T06:09:43;5.28;;;2.92;;
26135;SDS011;13889;50.806;4.608;2022-09-13T06:12:10;4.85;;;2.97;;
26135;SDS011;13889;50.806;4.608;2022-09-13T06:23:49;4.15;;;3.10;;
26135;SDS011;13889;50.806;4.608;2022-09-13T06:26:18;5.60;;;3.58;;
26135;SDS011;13889;50.806;4.608;2022-09-13T06:28:49;5.60;;;3.13;;
26135;SDS011;13889;50.806;4.608;2022-09-13T06:31:17;3.70;;;3.25;;
26135;SDS011;13889;50.806;4.608;2022-09-13T06:33:47;3.63;;;2.83;;
26135;SDS011;13889;50.806;4.608;2022-09-13T06:36:19;3.92;;;3.20;;
26135;SDS011;13889;50.806;4.608;2022-09-13T06:38:45;4.68;;;3.30;;
26135;SDS011;13889;50.806;4.608;2022-09-13T06:44:16;6.43;;;3.63;;
26135;SDS011;13889;50.806;4.608;2022-09-13T06:46:54;3.30;;;3.00;;
26135;SDS011;13889;50.806;4.608;2022-09-13T06:49:21;4.07;;;3.25;;
26135;SDS011;13889;50.806;4.608;2022-09-13T06:51:47;3.78;;;2.97;;
26135;SDS011;13889;50.806;4.608;2022-09-13T06:54:12;4.68;;;3.25;;
26135;SDS011;13889;50.806;4.608;2022-09-13T06:56:38;3.50;;;2.60;;
26135;SDS011;13889;50.806;4.608;2022-09-13T06:59:04;6.43;;;3.17;;
26135;SDS011;13889;50.806;4.608;2022-09-13T07:01:32;4.07;;;3.45;;
26135;SDS011;13889;50.806;4.608;2022-09-13T07:04:01;3.38;;;2.90;;
26135;SDS011;13889;50.806;4.608;2022-09-13T07:06:31;3.78;;;3.13;;
26135;SDS011;13889;50.806;4.608;2022-09-13T07:08:59;4.13;;;3.10;;
26135;SDS011;13889;50.806;4.608;2022-09-13T07:11:27;4.75;;;3.10;;
26135;SDS011;13889;50.806;4.608;2022-09-13T07:14:23;4.85;;;3.20;;
26135;SDS011;13889;50.806;4.608;2022-09-13T07:16:50;4.72;;;3.00;;
26135;SDS011;13889;50.806;4.608;2022-09-13T07:19:21;3.70;;;3.28;;
26135;SDS011;13889;50.806;4.608;2022-09-13T07:25:25;4.32;;;3.50;;
26135;SDS011;13889;50.806;4.608;2022-09-13T07:30:41;4.75;;;3.33;;
26135;SDS011;13889;50.806;4.608;2022-09-13T07:33:07;6.03;;;3.70;;
26135;SDS011;13889;50.806;4.608;2022-09-13T07:35:33;4.65;;;3.53;;
26135;SDS011;13889;50.806;4.608;2022-09-13T07:37:58;5.05;;;3.28;;
26135;SDS011;13889;50.806;4.608;2022-09-13T07:40:24;7.60;;;3.75;;
26135;SDS011;13889;50.806;4.608;2022-09-13T07:42:49;4.50;;;3.45;;
26135;SDS011;13889;50.806;4.608;2022-09-13T07:45:15;6.00;;;3.78;;
26135;SDS011;13889;50.806;4.608;2022-09-13T07:47:40;6.45;;;3.75;;
26135;SDS011;13889;50.806;4.608;2022-09-13T07:50:11;5.40;;;3.63;;
26135;SDS011;13889;50.806;4.608;2022-09-13T07:59:04;4.00;;;3.17;;
26135;SDS011;13889;50.806;4.608;2022-09-13T08:01:35;6.32;;;3.90;;
26135;SDS011;13889;50.806;4.608;2022-09-13T08:04:07;5.53;;;3.28;;
26135;SDS011;13889;50.806;4.608;2022-09-13T08:19:06;4.18;;;3.40;;
26135;SDS011;13889;50.806;4.608;2022-09-13T08:44:17;5.80;;;3.35;;
26135;SDS011;13889;50.806;4.608;2022-09-13T08:47:39;3.78;;;2.95;;
26135;SDS011;13889;50.806;4.608;2022-09-13T08:49:45;3.80;;;2.38;;
26135;SDS011;13889;50.806;4.608;2022-09-13T09:07:36;5.82;;;2.80;;
26135;SDS011;13889;50.806;4.608;2022-09-13T09:10:10;4.47;;;2.63;;
26135;SDS011;13889;50.806;4.608;2022-09-13T09:12:48;3.70;;;2.30;;
26135;SDS011;13889;50.806;4.608;2022-09-13T09:18:23;4.53;;;2.60;;
26135;SDS011;13889;50.806;4.608;2022-09-13T09:20:54;3.17;;;2.28;;
26135;SDS011;13889;50.806;4.608;2022-09-13T09:56:36;5.47;;;2.50;;
26135;SDS011;13889;50.806;4.608;2022-09-13T10:06:07;6.65;;;3.13;;
26135;SDS011;13889;50.806;4.608;2022-09-13T10:31:37;3.45;;;2.70;;
26135;SDS011;13889;50.806;4.608;2022-09-13T10:34:13;2.63;;;2.08;;
26135;SDS011;13889;50.806;4.608;2022-09-13T10:40:10;4.72;;;2.70;;
26135;SDS011;13889;50.806;4.608;2022-09-13T10:46:20;5.45;;;2.40;;
26135;SDS011;13889;50.806;4.608;2022-09-13T10:52:26;4.57;;;2.53;;
26135;SDS011;13889;50.806;4.608;2022-09-13T10:58:35;2.20;;;2.00;;
26135;SDS011;13889;50.806;4.608;2022-09-13T11:01:09;3.80;;;2.05;;
26135;SDS011;13889;50.806;4.608;2022-09-13T11:13:04;3.45;;;2.45;;
26135;SDS011;13889;50.806;4.608;2022-09-13T11:22:22;4.32;;;2.40;;
26135;SDS011;13889;50.806;4.608;2022-09-13T11:25:15;4.40;;;2.50;;
26135;SDS011;13889;50.806;4.608;2022-09-13T11:28:14;4.63;;;2.53;;
26135;SDS011;13889;50.806;4.608;2022-09-13T11:31:03;2.35;;;2.15;;
26135;SDS011;13889;50.806;4.608;2022-09-13T11:39:30;3.38;;;2.88;;
26135;SDS011;13889;50.806;4.608;2022-09-13T11:48:19;2.10;;;1.88;;
26135;SDS011;13889;50.806;4.608;2022-09-13T11:57:58;3.97;;;3.15;;
26135;SDS011;13889;50.806;4.608;2022-09-13T12:00:32;4.53;;;2.70;;
26135;SDS011;13889;50.806;4.608;2022-09-13T12:21:57;5.75;;;2.88;;
26135;SDS011;13889;50.806;4.608;2022-09-13T12:27:50;3.28;;;2.25;;
26135;SDS011;13889;50.806;4.608;2022-09-13T12:30:24;4.40;;;2.40;;
26135;SDS011;13889;50.806;4.608;2022-09-13T12:32:58;3.35;;;2.75;;
26135;SDS011;13889;50.806;4.608;2022-09-13T12:35:34;4.75;;;3.00;;
26135;SDS011;13889;50.806;4.608;2022-09-13T12:41:34;4.50;;;2.03;;
26135;SDS011;13889;50.806;4.608;2022-09-13T13:01:05;3.60;;;2.50;;
26135;SDS011;13889;50.806;4.608;2022-09-13T13:03:40;4.30;;;2.75;;
26135;SDS011;13889;50.806;4.608;2022-09-13T13:06:20;4.57;;;2.63;;
26135;SDS011;13889;50.806;4.608;2022-09-13T13:08:51;3.88;;;2.90;;
26135;SDS011;13889;50.806;4.608;2022-09-13T13:11:23;3.17;;;2.70;;
26135;SDS011;13889;50.806;4.608;2022-09-13T13:16:26;2.95;;;2.40;;
26135;SDS011;13889;50.806;4.608;2022-09-13T13:25:52;2.75;;;2.47;;
26135;SDS011;13889;50.806;4.608;2022-09-13T13:40:47;3.20;;;2.90;;
26135;SDS011;13889;50.806;4.608;2022-09-13T13:43:32;3.83;;;2.60;;
26135;SDS011;13889;50.806;4.608;2022-09-13T13:59:49;2.95;;;2.25;;
26135;SDS011;13889;50.806;4.608;2022-09-13T14:05:45;4.82;;;2.78;;
26135;SDS011;13889;50.806;4.608;2022-09-13T14:08:25;4.25;;;2.83;;
26135;SDS011;13889;50.806;4.608;2022-09-13T14:11:05;4.22;;;2.85;;
26135;SDS011;13889;50.806;4.608;2022-09-13T14:14:03;4.20;;;2.85;;
26135;SDS011;13889;50.806;4.608;2022-09-13T14:19:46;5.93;;;3.30;;
26135;SDS011;13889;50.806;4.608;2022-09-13T14:22:21;4.60;;;2.97;;
26135;SDS011;13889;50.806;4.608;2022-09-13T14:24:53;5.68;;;3.10;;
26135;SDS011;13889;50.806;4.608;2022-09-13T14:29:53;3.53;;;2.70;;
26135;SDS011;13889;50.806;4.608;2022-09-13T14:32:27;4.55;;;2.72;;
26135;SDS011;13889;50.806;4.608;2022-09-13T14:34:56;5.00;;;2.45;;
26135;SDS011;13889;50.806;4.608;2022-09-13T14:37:24;4.57;;;2.50;;
26135;SDS011;13889;50.806;4.608;2022-09-13T14:42:44;3.13;;;2.45;;
26135;SDS011;13889;50.806;4.608;2022-09-13T14:45:30;3.83;;;2.58;;
26135;SDS011;13889;50.806;4.608;2022-09-13T14:48:05;3.00;;;2.80;;
26135;SDS011;13889;50.806;4.608;2022-09-13T14:50:40;4.63;;;2.65;;
26135;SDS011;13889;50.806;4.608;2022-09-13T14:53:16;2.42;;;2.20;;
26135;SDS011;13889;50.806;4.608;2022-09-13T14:55:47;3.47;;;2.60;;
26135;SDS011;13889;50.806;4.608;2022-09-13T14:58:17;3.58;;;2.70;;
26135;SDS011;13889;50.806;4.608;2022-09-13T15:00:59;3.95;;;2.50;;
26135;SDS011;13889;50.806;4.608;2022-09-13T15:03:27;3.13;;;2.78;;
26135;SDS011;13889;50.806;4.608;2022-09-13T15:05:54;3.50;;;2.42;;
26135;SDS011;13889;50.806;4.608;2022-09-13T15:09:12;2.85;;;2.40;;
26135;SDS011;13889;50.806;4.608;2022-09-13T15:11:16;4.45;;;2.75;;
26135;SDS011;13889;50.806;4.608;2022-09-13T15:13:59;3.42;;;2.60;;
26135;SDS011;13889;50.806;4.608;2022-09-13T15:19:42;2.63;;;2.20;;
26135;SDS011;13889;50.806;4.608;2022-09-13T15:24:48;2.83;;;2.63;;
26135;SDS011;13889;50.806;4.608;2022-09-13T15:27:28;3.13;;;2.30;;
26135;SDS011;13889;50.806;4.608;2022-09-13T15:32:46;4.32;;;2.45;;
26135;SDS011;13889;50.806;4.608;2022-09-13T15:35:21;4.18;;;2.42;;
26135;SDS011;13889;50.806;4.608;2022-09-13T15:40:51;7.50;;;3.30;;
26135;SDS011;13889;50.806;4.608;2022-09-13T15:43:41;4.88;;;2.35;;
26135;SDS011;13889;50.806;4.608;2022-09-13T15:46:08;5.35;;;3.25;;
26135;SDS011;13889;50.806;4.608;2022-09-13T15:48:39;4.90;;;2.92;;
26135;SDS011;13889;50.806;4.608;2022-09-13T15:51:14;3.72;;;2.70;;
26135;SDS011;13889;50.806;4.608;2022-09-13T15:53:42;6.85;;;2.53;;
26135;SDS011;13889;50.806;4.608;2022-09-13T15:56:11;4.20;;;2.60;;
26135;SDS011;13889;50.806;4.608;2022-09-13T15:58:38;5.28;;;2.60;;
26135;SDS011;13889;50.806;4.608;2022-09-13T16:01:04;5.10;;;2.80;;
26135;SDS011;13889;50.806;4.608;2022-09-13T16:03:30;5.35;;;2.63;;
26135;SDS011;13889;50.806;4.608;2022-09-13T16:05:57;4.20;;;2.75;;
26135;SDS011;13889;50.806;4.608;2022-09-13T16:08:22;3.50;;;3.05;;
26135;SDS011;13889;50.806;4.608;2022-09-13T16:10:48;3.80;;;2.80;;
26135;SDS011;13889;50.806;4.608;2022-09-13T16:13:14;4.10;;;2.95;;
26135;SDS011;13889;50.806;4.608;2022-09-13T16:15:40;4.65;;;3.63;;
26135;SDS011;13889;50.806;4.608;2022-09-13T16:18:06;3.10;;;2.80;;
26135;SDS011;13889;50.806;4.608;2022-09-13T16:20:33;3.13;;;2.80;;
26135;SDS011;13889;50.806;4.608;2022-09-13T16:22:58;3.22;;;2.67;;
26135;SDS011;13889;50.806;4.608;2022-09-13T16:25:24;7.00;;;3.53;;
26135;SDS011;13889;50.806;4.608;2022-09-13T16:27:50;5.82;;;3.10;;
26135;SDS011;13889;50.806;4.608;2022-09-13T16:30:18;5.78;;;3.30;;
26135;SDS011;13889;50.806;4.608;2022-09-13T16:32:46;4.60;;;3.30;;
26135;SDS011;13889;50.806;4.608;2022-09-13T16:35:12;4.97;;;3.08;;
26135;SDS011;13889;50.806;4.608;2022-09-13T16:37:38;3.58;;;3.28;;
26135;SDS011;13889;50.806;4.608;2022-09-13T16:40:05;3.53;;;3.22;;
26135;SDS011;13889;50.806;4.608;2022-09-13T16:42:33;5.75;;;3.58;;
26135;SDS011;13889;50.806;4.608;2022-09-13T16:47:42;4.47;;;4.00;;
26135;SDS011;13889;50.806;4.608;2022-09-13T16:50:08;4.63;;;3.08;;
26135;SDS011;13889;50.806;4.608;2022-09-13T16:52:34;8.55;;;3.53;;
26135;SDS011;13889;50.806;4.608;2022-09-13T16:55:00;6.40;;;3.58;;
26135;SDS011;13889;50.806;4.608;2022-09-13T16:57:26;7.03;;;3.50;;
26135;SDS011;13889;50.806;4.608;2022-09-13T16:59:52;10.75;;;4.18;;
26135;SDS011;13889;50.806;4.608;2022-09-13T17:02:20;6.53;;;3.45;;
26135;SDS011;13889;50.806;4.608;2022-09-13T17:04:46;4.90;;;3.53;;
26135;SDS011;13889;50.806;4.608;2022-09-13T17:07:12;4.05;;;3.38;;
26135;SDS011;13889;50.806;4.608;2022-09-13T17:09:38;4.20;;;3.33;;
26135;SDS011;13889;50.806;4.608;2022-09-13T17:12:05;8.40;;;3.72;;
26135;SDS011;13889;50.806;4.608;2022-09-13T17:14:32;5.47;;;4.07;;
26135;SDS011;13889;50.806;4.608;2022-09-13T17:16:58;5.95;;;4.43;;
26135;SDS011;13889;50.806;4.608;2022-09-13T17:19:25;7.22;;;4.35;;
26135;SDS011;13889;50.806;4.608;2022-09-13T17:21:55;5.85;;;4.53;;
26135;SDS011;13889;50.806;4.608;2022-09-13T17:24:23;5.38;;;3.78;;
26135;SDS011;13889;50.806;4.608;2022-09-13T17:26:51;6.43;;;4.65;;
26135;SDS011;13889;50.806;4.608;2022-09-13T17:29:17;8.07;;;4.70;;
26135;SDS011;13889;50.806;4.608;2022-09-13T17:31:43;6.35;;;4.95;;
26135;SDS011;13889;50.806;4.608;2022-09-13T17:34:09;4.97;;;4.00;;
26135;SDS011;13889;50.806;4.608;2022-09-13T17:36:36;6.28;;;4.63;;
26135;SDS011;13889;50.806;4.608;2022-09-13T17:39:03;7.43;;;4.45;;
26135;SDS011;13889;50.806;4.608;2022-09-13T17:41:29;8.70;;;4.63;;
26135;SDS011;13889;50.806;4.608;2022-09-13T17:43:55;6.57;;;5.00;;
26135;SDS011;13889;50.806;4.608;2022-09-13T17:46:21;6.00;;;4.82;;
26135;SDS011;13889;50.806;4.608;2022-09-13T17:48:49;10.23;;;5.28;;
26135;SDS011;13889;50.806;4.608;2022-09-13T17:51:17;4.80;;;4.40;;
26135;SDS011;13889;50.806;4.608;2022-09-13T17:53:45;6.72;;;5.40;;
26135;SDS011;13889;50.806;4.608;2022-09-13T17:56:15;4.63;;;4.22;;
26135;SDS011;13889;50.806;4.608;2022-09-13T17:58:43;8.45;;;3.85;;
26135;SDS011;13889;50.806;4.608;2022-09-13T18:01:09;10.07;;;3.92;;
26135;SDS011;13889;50.806;4.608;2022-09-13T18:03:35;7.30;;;3.72;;
26135;SDS011;13889;50.806;4.608;2022-09-13T18:06:02;7.55;;;4.07;;
26135;SDS011;13889;50.806;4.608;2022-09-13T18:08:30;7.88;;;3.85;;
26135;SDS011;13889;50.806;4.608;2022-09-13T18:11:01;4.05;;;3.55;;
26135;SDS011;13889;50.806;4.608;2022-09-13T18:13:28;5.10;;;3.78;;
26135;SDS011;13889;50.806;4.608;2022-09-13T18:16:00;6.20;;;3.97;;
26135;SDS011;13889;50.806;4.608;2022-09-13T18:18:28;7.55;;;4.00;;
26135;SDS011;13889;50.806;4.608;2022-09-13T18:20:55;7.45;;;3.65;;
26135;SDS011;13889;50.806;4.608;2022-09-13T18:23:21;5.43;;;4.38;;
26135;SDS011;13889;50.806;4.608;2022-09-13T18:28:26;5.20;;;4.70;;
26135;SDS011;13889;50.806;4.608;2022-09-13T18:30:56;4.68;;;4.22;;
26135;SDS011;13889;50.806;4.608;2022-09-13T18:33:23;6.80;;;4.20;;
26135;SDS011;13889;50.806;4.608;2022-09-13T18:38:33;5.57;;;4.50;;
26135;SDS011;13889;50.806;4.608;2022-09-13T18:41:02;5.45;;;4.30;;
26135;SDS011;13889;50.806;4.608;2022-09-13T18:43:29;6.78;;;4.47;;
26135;SDS011;13889;50.806;4.608;2022-09-13T18:45:56;5.45;;;4.38;;
26135;SDS011;13889;50.806;4.608;2022-09-13T18:48:23;6.25;;;4.70;;
26135;SDS011;13889;50.806;4.608;2022-09-13T18:50:53;6.05;;;4.78;;
26135;SDS011;13889;50.806;4.608;2022-09-13T18:53:18;4.75;;;4.30;;
26135;SDS011;13889;50.806;4.608;2022-09-13T18:55:44;6.85;;;4.88;;
26135;SDS011;13889;50.806;4.608;2022-09-13T18:58:09;4.65;;;4.22;;
26135;SDS011;13889;50.806;4.608;2022-09-13T19:00:35;6.72;;;4.32;;
26135;SDS011;13889;50.806;4.608;2022-09-13T19:03:01;6.72;;;4.45;;
26135;SDS011;13889;50.806;4.608;2022-09-13T19:05:26;6.30;;;4.25;;
26135;SDS011;13889;50.806;4.608;2022-09-13T19:07:52;5.45;;;4.65;;
26135;SDS011;13889;50.806;4.608;2022-09-13T19:10:20;5.40;;;4.90;;
26135;SDS011;13889;50.806;4.608;2022-09-13T19:12:46;7.72;;;5.47;;
26135;SDS011;13889;50.806;4.608;2022-09-13T19:15:11;7.30;;;5.10;;
26135;SDS011;13889;50.806;4.608;2022-09-13T19:17:38;5.15;;;4.65;;
26135;SDS011;13889;50.806;4.608;2022-09-13T19:20:04;9.93;;;4.50;;
26135;SDS011;13889;50.806;4.608;2022-09-13T19:22:30;10.88;;;4.85;;
26135;SDS011;13889;50.806;4.608;2022-09-13T19:24:55;8.75;;;4.55;;
26135;SDS011;13889;50.806;4.608;2022-09-13T19:27:21;4.75;;;4.13;;
26135;SDS011;13889;50.806;4.608;2022-09-13T19:29:46;6.82;;;4.50;;
26135;SDS011;13889;50.806;4.608;2022-09-13T19:32:12;6.57;;;4.65;;
26135;SDS011;13889;50.806;4.608;2022-09-13T19:34:39;6.68;;;5.28;;
26135;SDS011;13889;50.806;4.608;2022-09-13T19:37:05;4.80;;;4.25;;
26135;SDS011;13889;50.806;4.608;2022-09-13T19:39:32;4.50;;;4.10;;
26135;SDS011;13889;50.806;4.608;2022-09-13T19:41:58;7.68;;;4.93;;
26135;SDS011;13889;50.806;4.608;2022-09-13T19:44:24;5.25;;;4.72;;
26135;SDS011;13889;50.806;4.608;2022-09-13T19:46:50;6.82;;;4.20;;
26135;SDS011;13889;50.806;4.608;2022-09-13T19:49:16;6.32;;;4.47;;
26135;SDS011;13889;50.806;4.608;2022-09-13T19:51:42;6.53;;;4.95;;
26135;SDS011;13889;50.806;4.608;2022-09-13T19:54:10;6.93;;;4.80;;
26135;SDS011;13889;50.806;4.608;2022-09-13T19:56:39;7.13;;;5.05;;
26135;SDS011;13889;50.806;4.608;2022-09-13T19:59:07;5.55;;;4.82;;
26135;SDS011;13889;50.806;4.608;2022-09-13T20:01:38;11.27;;;5.03;;
26135;SDS011;13889;50.806;4.608;2022-09-13T20:04:07;4.85;;;4.45;;
26135;SDS011;13889;50.806;4.608;2022-09-13T20:06:45;7.45;;;4.57;;
26135;SDS011;13889;50.806;4.608;2022-09-13T20:09:15;5.63;;;4.80;;
26135;SDS011;13889;50.806;4.608;2022-09-13T20:11:42;7.05;;;4.57;;
26135;SDS011;13889;50.806;4.608;2022-09-13T20:14:13;5.43;;;4.65;;
26135;SDS011;13889;50.806;4.608;2022-09-13T20:16:41;5.10;;;4.38;;
26135;SDS011;13889;50.806;4.608;2022-09-13T20:19:07;5.30;;;4.80;;
26135;SDS011;13889;50.806;4.608;2022-09-13T20:21:37;5.68;;;4.88;;
26135;SDS011;13889;50.806;4.608;2022-09-13T20:24:04;5.43;;;4.75;;
26135;SDS011;13889;50.806;4.608;2022-09-13T20:26:32;8.15;;;4.47;;
26135;SDS011;13889;50.806;4.608;2022-09-13T20:29:03;5.25;;;4.80;;
26135;SDS011;13889;50.806;4.608;2022-09-13T20:31:31;4.82;;;4.30;;
26135;SDS011;13889;50.806;4.608;2022-09-13T20:34:00;7.72;;;5.15;;
26135;SDS011;13889;50.806;4.608;2022-09-13T20:36:27;7.22;;;5.07;;
26135;SDS011;13889;50.806;4.608;2022-09-13T20:38:54;5.95;;;4.63;;
26135;SDS011;13889;50.806;4.608;2022-09-13T20:41:21;6.45;;;5.00;;
26135;SDS011;13889;50.806;4.608;2022-09-13T20:43:48;6.40;;;4.90;;
26135;SDS011;13889;50.806;4.608;2022-09-13T20:46:14;7.47;;;5.40;;
26135;SDS011;13889;50.806;4.608;2022-09-13T20:48:41;5.72;;;5.05;;
26135;SDS011;13889;50.806;4.608;2022-09-13T20:51:18;9.48;;;5.47;;
26135;SDS011;13889;50.806;4.608;2022-09-13T20:53:46;6.50;;;5.35;;
26135;SDS011;13889;50.806;4.608;2022-09-13T20:56:16;9.57;;;4.97;;
26135;SDS011;13889;50.806;4.608;2022-09-13T20:58:43;7.15;;;6.07;;
26135;SDS011;13889;50.806;4.608;2022-09-13T21:01:11;8.10;;;5.55;;
26135;SDS011;13889;50.806;4.608;2022-09-13T21:03:40;8.80;;;5.80;;
26135;SDS011;13889;50.806;4.608;2022-09-13T21:06:06;6.72;;;5.30;;
26135;SDS011;13889;50.806;4.608;2022-09-13T21:08:33;6.10;;;5.53;;
26135;SDS011;13889;50.806;4.608;2022-09-13T21:13:39;11.90;;;6.32;;
26135;SDS011;13889;50.806;4.608;2022-09-13T21:16:05;7.38;;;5.32;;
26135;SDS011;13889;50.806;4.608;2022-09-13T21:18:36;5.95;;;5.35;;
26135;SDS011;13889;50.806;4.608;2022-09-13T21:21:02;6.70;;;5.95;;
26135;SDS011;13889;50.806;4.608;2022-09-13T21:23:30;9.55;;;5.55;;
26135;SDS011;13889;50.806;4.608;2022-09-13T21:26:04;8.55;;;6.03;;
26135;SDS011;13889;50.806;4.608;2022-09-13T21:28:34;7.03;;;5.50;;
26135;SDS011;13889;50.806;4.608;2022-09-13T21:31:05;7.30;;;6.00;;
26135;SDS011;13889;50.806;4.608;2022-09-13T21:33:33;7.57;;;5.97;;